Terminal Aerodrome Forecast
Issued by NWS

Home | Current Version | Previous Version | Graphics & Text | Print | Product List | Glossary On
Versions: 1 2 3 4 5 6 7 8 9 10 11 12 13 14 15 16
118
FTUS43 KOAX 220540
TAFCDR
TAF
KCDR 220540Z 2206/2306 27007KT P6SM FEW120
     FM221600 32013G23KT P6SM VCSH BKN050
     FM221900 34016G24KT P6SM -SHRA BKN040 OVC070
     FM230200 36011KT P6SM SCT050 BKN090=

USA.gov is the U.S. government's official web portal to all federal, state and local government web resources and services.